sensor_id;sensor_type;location;lat;lon;timestamp;pressure;altitude;pressure_sealevel;temperature;humidity
61682;BME280;47577;43.610;25.010;2023-01-15T00:00:19;101204.88;;;4.85;86.50
61682;BME280;47577;43.610;25.010;2023-01-15T00:02:45;101207.53;;;4.89;86.22
61682;BME280;47577;43.610;25.010;2023-01-15T00:05:11;101190.78;;;4.87;86.58
61682;BME280;47577;43.610;25.010;2023-01-15T00:07:36;101206.63;;;4.89;86.57
61682;BME280;47577;43.610;25.010;2023-01-15T00:10:02;101213.66;;;4.91;86.57
61682;BME280;47577;43.610;25.010;2023-01-15T00:12:28;101215.41;;;4.83;86.97
61682;BME280;47577;43.610;25.010;2023-01-15T00:14:53;101203.91;;;4.64;86.99
61682;BME280;47577;43.610;25.010;2023-01-15T00:17:19;101204.78;;;4.63;87.35
61682;BME280;47577;43.610;25.010;2023-01-15T00:19:45;101193.34;;;4.60;87.94
61682;BME280;47577;43.610;25.010;2023-01-15T00:22:11;101162.56;;;4.37;87.33
61682;BME280;47577;43.610;25.010;2023-01-15T00:24:36;101225.84;;;4.65;88.22
61682;BME280;47577;43.610;25.010;2023-01-15T00:27:20;101210.03;;;4.54;87.47
61682;BME280;47577;43.610;25.010;2023-01-15T00:30:06;101211.81;;;4.61;89.04
61682;BME280;47577;43.610;25.010;2023-01-15T00:32:32;101203.94;;;4.66;87.72
61682;BME280;47577;43.610;25.010;2023-01-15T00:34:59;101203.94;;;4.72;87.83
61682;BME280;47577;43.610;25.010;2023-01-15T00:37:25;101193.41;;;4.67;87.29
61682;BME280;47577;43.610;25.010;2023-01-15T00:39:51;101191.63;;;4.68;87.44
61682;BME280;47577;43.610;25.010;2023-01-15T00:42:17;101190.75;;;4.69;87.19
61682;BME280;47577;43.610;25.010;2023-01-15T00:44:43;101191.63;;;4.65;87.36
61682;BME280;47577;43.610;25.010;2023-01-15T00:47:08;101203.94;;;4.69;87.80
61682;BME280;47577;43.610;25.010;2023-01-15T00:49:39;101203.94;;;4.72;87.95
61682;BME280;47577;43.610;25.010;2023-01-15T00:52:05;101202.06;;;4.37;88.46
61682;BME280;47577;43.610;25.010;2023-01-15T00:54:31;101190.69;;;4.47;89.17
61682;BME280;47577;43.610;25.010;2023-01-15T00:56:58;101189.00;;;4.62;88.55
61682;BME280;47577;43.610;25.010;2023-01-15T00:59:24;101192.53;;;4.67;87.54
61682;BME280;47577;43.610;25.010;2023-01-15T01:01:49;101196.03;;;4.69;87.10
61682;BME280;47577;43.610;25.010;2023-01-15T01:04:15;101188.97;;;4.65;87.28
61682;BME280;47577;43.610;25.010;2023-01-15T01:06:41;101195.16;;;4.65;88.42
61682;BME280;47577;43.610;25.010;2023-01-15T01:09:06;101196.91;;;4.69;87.95
61682;BME280;47577;43.610;25.010;2023-01-15T01:11:32;101200.44;;;4.70;88.05
61682;BME280;47577;43.610;25.010;2023-01-15T01:13:59;101180.22;;;4.70;87.51
61682;BME280;47577;43.610;25.010;2023-01-15T01:16:31;101188.13;;;4.72;86.85
61682;BME280;47577;43.610;25.010;2023-01-15T01:19:02;101173.19;;;4.71;87.06
61682;BME280;47577;43.610;25.010;2023-01-15T01:21:29;101189.03;;;4.77;87.26
61682;BME280;47577;43.610;25.010;2023-01-15T01:23:57;101179.34;;;4.76;87.39
61682;BME280;47577;43.610;25.010;2023-01-15T01:26:23;101174.97;;;4.76;86.56
61682;BME280;47577;43.610;25.010;2023-01-15T01:28:50;101184.66;;;4.84;86.96
61682;BME280;47577;43.610;25.010;2023-01-15T01:31:16;101163.56;;;4.84;86.97
61682;BME280;47577;43.610;25.010;2023-01-15T01:33:41;101161.81;;;4.93;86.22
61682;BME280;47577;43.610;25.010;2023-01-15T01:36:07;101162.72;;;5.00;86.48
61682;BME280;47577;43.610;25.010;2023-01-15T01:38:33;101165.38;;;5.09;85.65
61682;BME280;47577;43.610;25.010;2023-01-15T01:40:58;101158.34;;;4.96;85.46
61682;BME280;47577;43.610;25.010;2023-01-15T01:43:26;101178.53;;;4.92;86.34
61682;BME280;47577;43.610;25.010;2023-01-15T01:45:53;101167.97;;;4.83;86.74
61682;BME280;47577;43.610;25.010;2023-01-15T01:48:22;101155.66;;;4.78;86.75
61682;BME280;47577;43.610;25.010;2023-01-15T01:50:49;101161.84;;;4.83;86.82
61682;BME280;47577;43.610;25.010;2023-01-15T01:53:21;101159.19;;;4.78;87.11
61682;BME280;47577;43.610;25.010;2023-01-15T01:55:49;101153.00;;;4.62;87.63
61682;BME280;47577;43.610;25.010;2023-01-15T01:58:15;101155.44;;;4.17;89.44
61682;BME280;47577;43.610;25.010;2023-01-15T02:00:45;101148.44;;;4.15;90.35
61682;BME280;47577;43.610;25.010;2023-01-15T02:03:12;101149.38;;;4.26;90.04
61682;BME280;47577;43.610;25.010;2023-01-15T02:05:42;101157.28;;;4.37;91.07
61682;BME280;47577;43.610;25.010;2023-01-15T02:08:10;101149.44;;;4.46;90.80
61682;BME280;47577;43.610;25.010;2023-01-15T02:10:36;101160.84;;;4.51;89.45
61682;BME280;47577;43.610;25.010;2023-01-15T02:15:41;101154.72;;;4.55;88.94
61682;BME280;47577;43.610;25.010;2023-01-15T02:20:41;101152.91;;;4.44;88.35
61682;BME280;47577;43.610;25.010;2023-01-15T02:23:58;101159.94;;;4.38;88.58
61682;BME280;47577;43.610;25.010;2023-01-15T02:26:23;101154.56;;;4.12;90.44
61682;BME280;47577;43.610;25.010;2023-01-15T02:28:56;101158.09;;;4.19;89.96
61682;BME280;47577;43.610;25.010;2023-01-15T02:31:29;101161.59;;;4.19;90.63
61682;BME280;47577;43.610;25.010;2023-01-15T02:36:39;101151.97;;;4.23;90.96
61682;BME280;47577;43.610;25.010;2023-01-15T02:39:09;101148.50;;;4.36;90.18
61682;BME280;47577;43.610;25.010;2023-01-15T02:41:39;101130.09;;;4.39;89.78
61682;BME280;47577;43.610;25.010;2023-01-15T02:44:08;101133.63;;;4.45;88.44
61682;BME280;47577;43.610;25.010;2023-01-15T02:46:36;101131.84;;;4.45;88.83
61682;BME280;47577;43.610;25.010;2023-01-15T02:49:05;101144.19;;;4.57;87.58
61682;BME280;47577;43.610;25.010;2023-01-15T02:51:44;101150.31;;;4.53;88.31
61682;BME280;47577;43.610;25.010;2023-01-15T02:54:13;101135.38;;;4.46;87.89
61682;BME280;47577;43.610;25.010;2023-01-15T02:56:42;101135.38;;;4.43;88.72
61682;BME280;47577;43.610;25.010;2023-01-15T02:59:13;101125.66;;;4.32;89.13
61682;BME280;47577;43.610;25.010;2023-01-15T03:01:47;101143.28;;;4.41;88.50
61682;BME280;47577;43.610;25.010;2023-01-15T03:04:24;101142.38;;;4.40;88.88
61682;BME280;47577;43.610;25.010;2023-01-15T03:07:00;101146.66;;;4.12;90.38
61682;BME280;47577;43.610;25.010;2023-01-15T03:09:29;101140.53;;;4.15;90.51
61682;BME280;47577;43.610;25.010;2023-01-15T03:12:48;101148.47;;;4.18;89.32
61682;BME280;47577;43.610;25.010;2023-01-15T03:18:17;101144.09;;;4.23;90.46
61682;BME280;47577;43.610;25.010;2023-01-15T03:20:49;101137.06;;;4.27;90.34
61682;BME280;47577;43.610;25.010;2023-01-15T03:23:17;101142.38;;;4.33;89.91
61682;BME280;47577;43.610;25.010;2023-01-15T03:25:46;101138.84;;;4.28;88.87
61682;BME280;47577;43.610;25.010;2023-01-15T03:28:16;101146.75;;;4.40;89.26
61682;BME280;47577;43.610;25.010;2023-01-15T03:30:42;101139.75;;;4.34;89.23
61682;BME280;47577;43.610;25.010;2023-01-15T03:33:08;101135.38;;;4.39;89.17
61682;BME280;47577;43.610;25.010;2023-01-15T03:35:44;101138.88;;;4.46;89.41
61682;BME280;47577;43.610;25.010;2023-01-15T03:38:12;101138.00;;;4.39;88.80
61682;BME280;47577;43.610;25.010;2023-01-15T03:40:47;101130.03;;;4.18;89.71
61682;BME280;47577;43.610;25.010;2023-01-15T03:43:14;101139.63;;;4.10;90.72
61682;BME280;47577;43.610;25.010;2023-01-15T03:46:03;101136.09;;;4.08;90.87
61682;BME280;47577;43.610;25.010;2023-01-15T03:48:36;101118.47;;;3.90;91.66
61682;BME280;47577;43.610;25.010;2023-01-15T03:51:12;101139.63;;;4.05;91.70
61682;BME280;47577;43.610;25.010;2023-01-15T03:53:48;101135.25;;;4.10;90.68
61682;BME280;47577;43.610;25.010;2023-01-15T03:56:30;101134.41;;;4.17;91.05
61682;BME280;47577;43.610;25.010;2023-01-15T03:59:10;101132.56;;;3.99;91.33
61682;BME280;47577;43.610;25.010;2023-01-15T04:01:38;101144.06;;;4.20;91.77
61682;BME280;47577;43.610;25.010;2023-01-15T04:04:06;101148.47;;;4.27;91.65
61682;BME280;47577;43.610;25.010;2023-01-15T04:06:34;101150.28;;;4.42;90.32
61682;BME280;47577;43.610;25.010;2023-01-15T04:09:00;101142.44;;;4.54;89.54
61682;BME280;47577;43.610;25.010;2023-01-15T04:11:27;101142.44;;;4.57;88.98
61682;BME280;47577;43.610;25.010;2023-01-15T04:13:53;101136.28;;;4.55;88.24
61682;BME280;47577;43.610;25.010;2023-01-15T04:16:24;101138.03;;;4.60;88.95
61682;BME280;47577;43.610;25.010;2023-01-15T04:18:51;101151.25;;;4.73;87.70
61682;BME280;47577;43.610;25.010;2023-01-15T04:21:17;101146.88;;;4.83;87.19
61682;BME280;47577;43.610;25.010;2023-01-15T04:23:42;101133.72;;;4.83;86.80
61682;BME280;47577;43.610;25.010;2023-01-15T04:26:08;101139.00;;;4.88;86.29
61682;BME280;47577;43.610;25.010;2023-01-15T04:28:34;101135.47;;;4.81;86.74
61682;BME280;47577;43.610;25.010;2023-01-15T04:30:59;101129.31;;;4.84;86.36
61682;BME280;47577;43.610;25.010;2023-01-15T04:33:25;101134.56;;;4.79;86.27
61682;BME280;47577;43.610;25.010;2023-01-15T04:35:51;101133.72;;;4.80;87.27
61682;BME280;47577;43.610;25.010;2023-01-15T04:38:16;101119.66;;;4.76;86.65
61682;BME280;47577;43.610;25.010;2023-01-15T04:40:43;101146.00;;;4.84;86.58
61682;BME280;47577;43.610;25.010;2023-01-15T04:43:27;101153.88;;;4.69;86.94
61682;BME280;47577;43.610;25.010;2023-01-15T04:46:12;101152.09;;;4.58;87.74
61682;BME280;47577;43.610;25.010;2023-01-15T04:48:38;101138.94;;;4.55;88.06
61682;BME280;47577;43.610;25.010;2023-01-15T04:51:05;101156.47;;;4.56;88.48
61682;BME280;47577;43.610;25.010;2023-01-15T04:53:32;101141.53;;;4.46;88.00
61682;BME280;47577;43.610;25.010;2023-01-15T04:56:04;101149.44;;;4.52;87.77
61682;BME280;47577;43.610;25.010;2023-01-15T04:58:30;101145.94;;;4.49;88.61
61682;BME280;47577;43.610;25.010;2023-01-15T05:00:57;101152.06;;;4.48;88.27
61682;BME280;47577;43.610;25.010;2023-01-15T05:03:28;101157.31;;;4.43;89.14
61682;BME280;47577;43.610;25.010;2023-01-15T05:05:54;101152.03;;;4.42;89.24
61682;BME280;47577;43.610;25.010;2023-01-15T05:08:20;101144.16;;;4.43;88.78
61682;BME280;47577;43.610;25.010;2023-01-15T05:10:46;101146.81;;;4.48;88.50
61682;BME280;47577;43.610;25.010;2023-01-15T05:13:11;101155.59;;;4.56;88.42
61682;BME280;47577;43.610;25.010;2023-01-15T05:15:37;101151.22;;;4.60;87.95
61682;BME280;47577;43.610;25.010;2023-01-15T05:18:05;101141.44;;;4.23;89.92
61682;BME280;47577;43.610;25.010;2023-01-15T05:20:34;101148.44;;;4.24;90.40
61682;BME280;47577;43.610;25.010;2023-01-15T05:23:00;101146.75;;;4.35;89.23
61682;BME280;47577;43.610;25.010;2023-01-15T05:25:25;101145.84;;;4.29;89.69
61682;BME280;47577;43.610;25.010;2023-01-15T05:27:51;101137.78;;;3.95;91.04
61682;BME280;47577;43.610;25.010;2023-01-15T05:30:17;101150.16;;;4.08;91.82
61682;BME280;47577;43.610;25.010;2023-01-15T05:32:42;101147.53;;;4.14;91.38
61682;BME280;47577;43.610;25.010;2023-01-15T05:35:08;101158.00;;;4.00;92.17
61682;BME280;47577;43.610;25.010;2023-01-15T05:37:34;101158.06;;;4.11;92.32
61682;BME280;47577;43.610;25.010;2023-01-15T05:39:59;101144.91;;;4.13;91.02
61682;BME280;47577;43.610;25.010;2023-01-15T05:42:25;101150.25;;;4.27;90.43
61682;BME280;47577;43.610;25.010;2023-01-15T05:44:51;101144.97;;;4.30;90.89
61682;BME280;47577;43.610;25.010;2023-01-15T05:47:17;101146.72;;;4.23;90.99
61682;BME280;47577;43.610;25.010;2023-01-15T05:49:42;101153.53;;;3.89;91.23
61682;BME280;47577;43.610;25.010;2023-01-15T05:52:08;101142.16;;;3.88;92.72
61682;BME280;47577;43.610;25.010;2023-01-15T05:54:35;101154.59;;;4.17;92.40
61682;BME280;47577;43.610;25.010;2023-01-15T05:57:01;101155.38;;;4.00;91.74
61682;BME280;47577;43.610;25.010;2023-01-15T05:59:28;101153.53;;;3.89;93.69
61682;BME280;47577;43.610;25.010;2023-01-15T06:01:55;101144.88;;;4.02;92.42
61682;BME280;47577;43.610;25.010;2023-01-15T06:04:22;101144.88;;;4.05;92.05
61682;BME280;47577;43.610;25.010;2023-01-15T06:06:50;101151.97;;;4.21;91.56
61682;BME280;47577;43.610;25.010;2023-01-15T06:09:17;101152.00;;;4.28;92.18
61682;BME280;47577;43.610;25.010;2023-01-15T06:11:43;101146.63;;;4.06;90.86
61682;BME280;47577;43.610;25.010;2023-01-15T06:14:10;101143.03;;;3.89;92.24
61682;BME280;47577;43.610;25.010;2023-01-15T06:16:37;101156.16;;;3.87;92.17
61682;BME280;47577;43.610;25.010;2023-01-15T06:19:04;101130.78;;;3.91;92.14
61682;BME280;47577;43.610;25.010;2023-01-15T06:21:31;101142.28;;;4.14;92.01
61682;BME280;47577;43.610;25.010;2023-01-15T06:23:57;101151.09;;;4.26;91.53
61682;BME280;47577;43.610;25.010;2023-01-15T06:26:23;101150.28;;;4.36;90.56
61682;BME280;47577;43.610;25.010;2023-01-15T06:28:49;101137.13;;;4.44;90.34
61682;BME280;47577;43.610;25.010;2023-01-15T06:31:17;101157.34;;;4.54;88.92
61682;BME280;47577;43.610;25.010;2023-01-15T06:33:43;101149.47;;;4.57;89.54
61682;BME280;47577;43.610;25.010;2023-01-15T06:36:16;101160.03;;;4.69;90.04
61682;BME280;47577;43.610;25.010;2023-01-15T06:38:43;101152.09;;;4.68;88.38
61682;BME280;47577;43.610;25.010;2023-01-15T06:41:13;101155.66;;;4.71;88.57
61682;BME280;47577;43.610;25.010;2023-01-15T06:43:57;101153.88;;;4.64;89.17
61682;BME280;47577;43.610;25.010;2023-01-15T06:46:46;101153.00;;;4.67;88.91
61682;BME280;47577;43.610;25.010;2023-01-15T06:49:32;101146.81;;;4.54;89.62
61682;BME280;47577;43.610;25.010;2023-01-15T06:51:58;101151.22;;;4.63;89.53
61682;BME280;47577;43.610;25.010;2023-01-15T06:54:24;101153.88;;;4.67;88.34
61682;BME280;47577;43.610;25.010;2023-01-15T06:56:49;101156.53;;;4.78;88.68
61682;BME280;47577;43.610;25.010;2023-01-15T06:59:15;101147.75;;;4.78;87.99
61682;BME280;47577;43.610;25.010;2023-01-15T07:01:41;101153.91;;;4.89;88.76
61682;BME280;47577;43.610;25.010;2023-01-15T07:04:07;101142.50;;;4.96;87.59
61682;BME280;47577;43.610;25.010;2023-01-15T07:06:33;101138.09;;;4.95;87.50
61682;BME280;47577;43.610;25.010;2023-01-15T07:08:58;101139.00;;;5.02;87.38
61682;BME280;47577;43.610;25.010;2023-01-15T07:11:24;101149.56;;;5.09;87.40
61682;BME280;47577;43.610;25.010;2023-01-15T07:13:50;101150.44;;;5.15;87.92
61682;BME280;47577;43.610;25.010;2023-01-15T07:16:15;101140.75;;;5.20;87.43
61682;BME280;47577;43.610;25.010;2023-01-15T07:18:53;101152.19;;;5.31;87.55
61682;BME280;47577;43.610;25.010;2023-01-15T07:21:20;101140.78;;;5.09;87.74
61682;BME280;47577;43.610;25.010;2023-01-15T07:23:45;101137.25;;;5.13;86.97
61682;BME280;47577;43.610;25.010;2023-01-15T07:26:11;101150.41;;;5.11;87.48
61682;BME280;47577;43.610;25.010;2023-01-15T07:28:36;101137.25;;;5.15;87.52
61682;BME280;47577;43.610;25.010;2023-01-15T07:31:02;101131.97;;;5.11;87.54
61682;BME280;47577;43.610;25.010;2023-01-15T07:33:28;101138.13;;;5.13;87.77
61682;BME280;47577;43.610;25.010;2023-01-15T07:35:54;101123.19;;;5.25;86.75
61682;BME280;47577;43.610;25.010;2023-01-15T07:38:21;101139.00;;;5.36;87.08
61682;BME280;47577;43.610;25.010;2023-01-15T07:40:47;101127.59;;;5.37;86.57
61682;BME280;47577;43.610;25.010;2023-01-15T07:43:33;101131.97;;;5.21;86.32
61682;BME280;47577;43.610;25.010;2023-01-15T07:46:16;101132.84;;;5.30;85.58
61682;BME280;47577;43.610;25.010;2023-01-15T07:49:00;101137.22;;;5.08;87.53
61682;BME280;47577;43.610;25.010;2023-01-15T07:51:44;101139.88;;;5.22;88.14
61682;BME280;47577;43.610;25.010;2023-01-15T07:54:10;101139.03;;;5.22;87.83
61682;BME280;47577;43.610;25.010;2023-01-15T07:56:36;101132.84;;;5.37;87.19
61682;BME280;47577;43.610;25.010;2023-01-15T07:59:02;101135.50;;;5.43;86.31
61682;BME280;47577;43.610;25.010;2023-01-15T08:01:27;101134.59;;;5.47;86.95
61682;BME280;47577;43.610;25.010;2023-01-15T08:03:53;101139.88;;;5.65;86.10
61682;BME280;47577;43.610;25.010;2023-01-15T08:06:18;101129.31;;;5.64;86.43
61682;BME280;47577;43.610;25.010;2023-01-15T08:08:44;101138.06;;;5.80;84.90
61682;BME280;47577;43.610;25.010;2023-01-15T08:11:10;101150.34;;;5.92;83.52
61682;BME280;47577;43.610;25.010;2023-01-15T08:13:54;101137.16;;;5.90;83.99
61682;BME280;47577;43.610;25.010;2023-01-15T08:16:37;101134.53;;;5.79;85.20
61682;BME280;47577;43.610;25.010;2023-01-15T08:19:03;101127.47;;;5.92;85.61
61682;BME280;47577;43.610;25.010;2023-01-15T08:21:28;101134.47;;;6.12;84.89
61682;BME280;47577;43.610;25.010;2023-01-15T08:23:54;101144.09;;;6.27;83.73
61682;BME280;47577;43.610;25.010;2023-01-15T08:26:20;101140.56;;;6.34;82.45
61682;BME280;47577;43.610;25.010;2023-01-15T08:28:45;101133.47;;;6.44;82.93
61682;BME280;47577;43.610;25.010;2023-01-15T08:31:11;101130.81;;;6.42;82.58
61682;BME280;47577;43.610;25.010;2023-01-15T08:33:36;101120.25;;;6.42;83.09
61682;BME280;47577;43.610;25.010;2023-01-15T08:36:02;101131.66;;;6.53;82.16
61682;BME280;47577;43.610;25.010;2023-01-15T08:38:28;101123.66;;;6.66;80.39
61682;BME280;47577;43.610;25.010;2023-01-15T08:40:54;101133.34;;;6.64;81.40
61682;BME280;47577;43.610;25.010;2023-01-15T08:43:30;101120.22;;;6.50;82.17
61682;BME280;47577;43.610;25.010;2023-01-15T08:46:02;101139.53;;;6.61;82.81
61682;BME280;47577;43.610;25.010;2023-01-15T08:48:29;101128.06;;;6.64;81.01
61682;BME280;47577;43.610;25.010;2023-01-15T08:50:57;101121.84;;;6.74;80.84
61682;BME280;47577;43.610;25.010;2023-01-15T08:53:23;101115.63;;;6.81;84.21
61682;BME280;47577;43.610;25.010;2023-01-15T08:55:49;101101.44;;;6.88;85.66
61682;BME280;47577;43.610;25.010;2023-01-15T08:58:16;101106.66;;;6.99;83.94
61682;BME280;47577;43.610;25.010;2023-01-15T09:00:45;101109.19;;;7.16;82.51
61682;BME280;47577;43.610;25.010;2023-01-15T09:03:10;101106.47;;;7.21;82.56
61682;BME280;47577;43.610;25.010;2023-01-15T09:05:36;101102.03;;;7.30;82.53
61682;BME280;47577;43.610;25.010;2023-01-15T09:08:04;101112.53;;;7.37;82.53
61682;BME280;47577;43.610;25.010;2023-01-15T09:10:30;101109.75;;;7.52;82.08
61682;BME280;47577;43.610;25.010;2023-01-15T09:13:03;101102.63;;;7.57;82.47
61682;BME280;47577;43.610;25.010;2023-01-15T09:15:30;101105.28;;;7.56;79.50
61682;BME280;47577;43.610;25.010;2023-01-15T09:17:57;101092.88;;;7.61;79.58
61682;BME280;47577;43.610;25.010;2023-01-15T09:20:23;101096.22;;;7.80;79.92
61682;BME280;47577;43.610;25.010;2023-01-15T09:22:50;101090.81;;;7.91;80.01
61682;BME280;47577;43.610;25.010;2023-01-15T09:25:16;101080.31;;;7.80;76.76
61682;BME280;47577;43.610;25.010;2023-01-15T09:27:44;101077.63;;;7.84;76.83
61682;BME280;47577;43.610;25.010;2023-01-15T09:30:16;101061.78;;;7.81;78.12
61682;BME280;47577;43.610;25.010;2023-01-15T09:32:43;101081.88;;;7.98;77.92
61682;BME280;47577;43.610;25.010;2023-01-15T09:35:09;101073.00;;;8.03;78.67
61682;BME280;47577;43.610;25.010;2023-01-15T09:37:34;101069.44;;;8.03;77.33
61682;BME280;47577;43.610;25.010;2023-01-15T09:40:00;101062.28;;;8.10;77.00
61682;BME280;47577;43.610;25.010;2023-01-15T09:42:39;101050.06;;;7.99;79.38
61682;BME280;47577;43.610;25.010;2023-01-15T09:45:24;101044.75;;;8.01;80.08
61682;BME280;47577;43.610;25.010;2023-01-15T09:50:34;101053.75;;;7.89;79.89
61682;BME280;47577;43.610;25.010;2023-01-15T09:53:20;101044.13;;;7.80;79.70
61682;BME280;47577;43.610;25.010;2023-01-15T09:55:49;101047.56;;;7.88;80.32
61682;BME280;47577;43.610;25.010;2023-01-15T09:58:18;101037.84;;;7.91;81.94
61682;BME280;47577;43.610;25.010;2023-01-15T10:00:47;101035.97;;;7.99;79.79
61682;BME280;47577;43.610;25.010;2023-01-15T10:03:24;101028.84;;;8.02;80.97
61682;BME280;47577;43.610;25.010;2023-01-15T10:06:55;101024.44;;;8.01;81.52
61682;BME280;47577;43.610;25.010;2023-01-15T10:08:49;101015.56;;;8.07;81.82
61682;BME280;47577;43.610;25.010;2023-01-15T10:13:44;100996.97;;;8.10;83.09
61682;BME280;47577;43.610;25.010;2023-01-15T10:16:16;101005.66;;;8.20;81.01
61682;BME280;47577;43.610;25.010;2023-01-15T10:18:43;100989.63;;;8.28;81.78
61682;BME280;47577;43.610;25.010;2023-01-15T10:24:17;100987.84;;;8.31;82.45
61682;BME280;47577;43.610;25.010;2023-01-15T10:26:49;100978.72;;;8.51;83.82
61682;BME280;47577;43.610;25.010;2023-01-15T10:35:26;100972.84;;;8.86;79.02
61682;BME280;47577;43.610;25.010;2023-01-15T10:44:08;100949.25;;;8.69;77.98
61682;BME280;47577;43.610;25.010;2023-01-15T10:46:38;100946.66;;;8.66;79.11
61682;BME280;47577;43.610;25.010;2023-01-15T10:49:17;100944.75;;;8.74;78.06
61682;BME280;47577;43.610;25.010;2023-01-15T10:51:49;100951.72;;;8.80;76.59
61682;BME280;47577;43.610;25.010;2023-01-15T10:57:16;100929.59;;;8.81;73.78
61682;BME280;47577;43.610;25.010;2023-01-15T11:00:11;100938.28;;;8.91;73.07
61682;BME280;47577;43.610;25.010;2023-01-15T11:02:44;100938.16;;;8.97;72.68
61682;BME280;47577;43.610;25.010;2023-01-15T11:05:17;100932.84;;;8.97;71.81
61682;BME280;47577;43.610;25.010;2023-01-15T11:07:51;100926.06;;;8.82;74.07
61682;BME280;47577;43.610;25.010;2023-01-15T11:10:19;100920.00;;;8.74;74.17
61682;BME280;47577;43.610;25.010;2023-01-15T11:12:59;100918.38;;;8.68;74.16
61682;BME280;47577;43.610;25.010;2023-01-15T11:15:48;100917.41;;;8.71;72.90
61682;BME280;47577;43.610;25.010;2023-01-15T11:18:38;100914.19;;;8.52;74.41
61682;BME280;47577;43.610;25.010;2023-01-15T11:21:23;100904.50;;;8.52;75.57
61682;BME280;47577;43.610;25.010;2023-01-15T11:23:50;100908.06;;;8.50;75.33
61682;BME280;47577;43.610;25.010;2023-01-15T11:26:22;100911.47;;;8.56;75.07
61682;BME280;47577;43.610;25.010;2023-01-15T11:28:49;100914.19;;;8.53;74.55
61682;BME280;47577;43.610;25.010;2023-01-15T11:31:15;100908.69;;;8.66;74.95
61682;BME280;47577;43.610;25.010;2023-01-15T11:33:59;100895.28;;;8.73;73.43
61682;BME280;47577;43.610;25.010;2023-01-15T11:36:28;100900.38;;;8.84;73.81
61682;BME280;47577;43.610;25.010;2023-01-15T11:38:54;100889.94;;;8.76;73.11
61682;BME280;47577;43.610;25.010;2023-01-15T11:41:29;100880.94;;;8.84;74.06
61682;BME280;47577;43.610;25.010;2023-01-15T11:44:14;100881.41;;;9.06;76.34
61682;BME280;47577;43.610;25.010;2023-01-15T11:46:59;100870.22;;;9.33;75.19
61682;BME280;47577;43.610;25.010;2023-01-15T11:49:53;100868.13;;;9.49;73.36
61682;BME280;47577;43.610;25.010;2023-01-15T11:52:51;100863.56;;;9.56;72.34
61682;BME280;47577;43.610;25.010;2023-01-15T11:55:25;100862.19;;;9.77;70.34
61682;BME280;47577;43.610;25.010;2023-01-15T11:57:51;100864.03;;;9.75;67.03
61682;BME280;47577;43.610;25.010;2023-01-15T12:00:27;100864.25;;;9.64;70.09
61682;BME280;47577;43.610;25.010;2023-01-15T12:02:57;100868.47;;;9.73;71.50
61682;BME280;47577;43.610;25.010;2023-01-15T12:05:36;100863.41;;;9.62;67.84
61682;BME280;47577;43.610;25.010;2023-01-15T12:08:34;100843.28;;;9.52;70.92
61682;BME280;47577;43.610;25.010;2023-01-15T12:11:09;100838.44;;;9.71;67.69
61682;BME280;47577;43.610;25.010;2023-01-15T12:16:34;100843.59;;;9.77;69.06
61682;BME280;47577;43.610;25.010;2023-01-15T12:19:10;100847.16;;;9.76;67.38
61682;BME280;47577;43.610;25.010;2023-01-15T12:21:45;100845.94;;;9.89;67.51
61682;BME280;47577;43.610;25.010;2023-01-15T12:27:07;100840.47;;;9.97;68.12
61682;BME280;47577;43.610;25.010;2023-01-15T12:29:48;100823.81;;;9.91;68.45
61682;BME280;47577;43.610;25.010;2023-01-15T12:32:19;100830.72;;;9.98;68.19
61682;BME280;47577;43.610;25.010;2023-01-15T12:35:31;100822.84;;;9.95;68.06
61682;BME280;47577;43.610;25.010;2023-01-15T12:38:20;100822.47;;;9.73;70.10
61682;BME280;47577;43.610;25.010;2023-01-15T12:40:57;100827.03;;;9.66;69.40
61682;BME280;47577;43.610;25.010;2023-01-15T12:43:26;100819.09;;;9.66;69.84
61682;BME280;47577;43.610;25.010;2023-01-15T12:46:17;100810.63;;;9.48;69.38
61682;BME280;47577;43.610;25.010;2023-01-15T12:51:30;100822.38;;;9.38;68.95
61682;BME280;47577;43.610;25.010;2023-01-15T12:54:06;100808.16;;;9.39;68.68
61682;BME280;47577;43.610;25.010;2023-01-15T12:57:08;100801.72;;;9.51;68.93
61682;BME280;47577;43.610;25.010;2023-01-15T12:59:50;100811.53;;;9.47;69.16
61682;BME280;47577;43.610;25.010;2023-01-15T13:02:35;100810.56;;;9.51;68.63
61682;BME280;47577;43.610;25.010;2023-01-15T13:05:27;100807.03;;;9.51;69.47
61682;BME280;47577;43.610;25.010;2023-01-15T13:08:09;100810.50;;;9.55;69.93
61682;BME280;47577;43.610;25.010;2023-01-15T13:10:40;100788.66;;;9.42;69.78
61682;BME280;47577;43.610;25.010;2023-01-15T13:13:29;100803.00;;;9.35;68.93
61682;BME280;47577;43.610;25.010;2023-01-15T13:16:16;100806.25;;;9.46;70.71
61682;BME280;47577;43.610;25.010;2023-01-15T13:21:29;100780.56;;;9.48;68.15
61682;BME280;47577;43.610;25.010;2023-01-15T13:27:04;100793.44;;;9.65;68.35
61682;BME280;47577;43.610;25.010;2023-01-15T13:30:03;100782.94;;;9.59;69.79
61682;BME280;47577;43.610;25.010;2023-01-15T13:32:44;100789.97;;;9.61;69.46
61682;BME280;47577;43.610;25.010;2023-01-15T13:37:47;100789.00;;;9.65;69.70
61682;BME280;47577;43.610;25.010;2023-01-15T13:40:32;100773.19;;;9.61;69.30
61682;BME280;47577;43.610;25.010;2023-01-15T13:43:01;100783.16;;;9.51;68.21
61682;BME280;47577;43.610;25.010;2023-01-15T13:45:40;100780.50;;;9.51;68.29
61682;BME280;47577;43.610;25.010;2023-01-15T13:48:16;100776.91;;;9.52;67.72
61682;BME280;47577;43.610;25.010;2023-01-15T13:50:54;100781.31;;;9.53;68.63
61682;BME280;47577;43.610;25.010;2023-01-15T13:53:31;100757.66;;;9.44;69.58
61682;BME280;47577;43.610;25.010;2023-01-15T13:56:06;100777.75;;;9.56;69.44
61682;BME280;47577;43.610;25.010;2023-01-15T13:58:38;100769.09;;;9.46;69.55
61682;BME280;47577;43.610;25.010;2023-01-15T14:03:51;100776.13;;;9.48;68.37